createdAt,value
2023-06-22T00:04:20.096Z,100615.19
2023-06-22T00:09:23.458Z,100618.25
2023-06-22T00:14:26.790Z,100617.59
2023-06-22T00:19:31.658Z,100611.41
2023-06-22T00:24:35.051Z,100615.56
2023-06-22T00:29:38.447Z,100616.69
2023-06-22T00:34:44.268Z,100623.69
2023-06-22T00:39:47.688Z,100631.16
2023-06-22T00:44:51.161Z,100634.22
2023-06-22T00:49:55.934Z,100632.72
2023-06-22T00:55:03.090Z,100627.59
2023-06-22T01:00:10.346Z,100627.75
2023-06-22T01:05:15.875Z,100639.81
2023-06-22T01:10:27.701Z,100632.94
2023-06-22T01:15:35.813Z,100643.22
2023-06-22T01:20:41.205Z,100637.25
2023-06-22T01:25:50.115Z,100643.84
2023-06-22T01:31:04.772Z,100637.75
2023-06-22T01:36:09.684Z,100646.66
2023-06-22T01:41:13.482Z,100640.53
2023-06-22T01:46:20.651Z,100648.44
2023-06-22T01:51:24.154Z,100645.03
2023-06-22T01:56:29.005Z,100653.19
2023-06-22T02:01:42.336Z,100647.78
2023-06-22T02:06:47.907Z,100650.31
2023-06-22T02:11:56.053Z,100659.09
2023-06-22T02:17:01.333Z,100666.19
2023-06-22T02:22:04.784Z,100658.16
2023-06-22T02:27:08.580Z,100662.28
2023-06-22T02:32:13.356Z,100664.63
2023-06-22T02:37:16.940Z,100666.66
2023-06-22T02:42:21.992Z,100668.66
2023-06-22T02:47:26.854Z,100671.66
2023-06-22T02:52:30.542Z,100671.00
2023-06-22T02:57:33.952Z,100669.59
2023-06-22T03:02:38.897Z,100682.91
2023-06-22T03:07:43.447Z,100679.34
2023-06-22T03:12:46.980Z,100676.59
2023-06-22T03:17:51.895Z,100670.34
2023-06-22T03:22:55.659Z,100662.50
2023-06-22T03:27:59.076Z,100664.56
2023-06-22T03:33:03.924Z,100677.53
2023-06-22T03:38:07.620Z,100677.13
2023-06-22T03:43:10.988Z,100682.13
2023-06-22T03:48:15.888Z,100687.00
2023-06-22T03:53:19.776Z,100684.69
2023-06-22T03:58:24.056Z,100685.09
2023-06-22T04:03:28.880Z,100681.84
2023-06-22T04:08:32.653Z,100683.34
2023-06-22T04:13:36.088Z,100681.00
2023-06-22T04:18:41.158Z,100687.88
2023-06-22T04:23:45.504Z,100694.22
2023-06-22T04:28:56.871Z,100701.47
2023-06-22T04:34:07.352Z,100704.88
2023-06-22T04:39:11.901Z,100711.34
2023-06-22T04:44:25.704Z,100723.31
2023-06-22T04:49:34.086Z,100729.97
2023-06-22T04:54:38.837Z,100737.88
2023-06-22T04:59:43.285Z,100744.06
2023-06-22T05:04:52.786Z,100748.88
2023-06-22T05:09:56.339Z,100764.41
2023-06-22T05:14:59.997Z,100755.66
2023-06-22T05:20:07.577Z,100772.59
2023-06-22T05:25:12.303Z,100783.25
2023-06-22T05:30:18.359Z,100785.91
2023-06-22T05:35:24.707Z,100797.69
2023-06-22T05:40:28.815Z,100803.97
2023-06-22T05:45:32.327Z,100816.84
2023-06-22T05:50:37.084Z,100816.19
2023-06-22T05:55:40.437Z,100820.75
2023-06-22T06:00:44.402Z,100823.56
2023-06-22T06:05:49.088Z,100819.69
2023-06-22T06:10:54.178Z,100817.41
2023-06-22T06:15:57.524Z,100826.44
2023-06-22T06:21:02.214Z,100821.91
2023-06-22T06:26:08.550Z,100819.69
2023-06-22T06:31:13.739Z,100830.72
2023-06-22T06:36:19.245Z,100822.72
2023-06-22T06:41:23.742Z,100832.59
2023-06-22T06:46:27.128Z,100834.28
2023-06-22T06:51:32.326Z,100843.16
2023-06-22T06:56:36.713Z,100843.19
2023-06-22T07:01:40.170Z,100858.00
2023-06-22T07:06:44.883Z,100857.03
2023-06-22T07:11:48.300Z,100870.09
2023-06-22T07:16:51.792Z,100873.03
2023-06-22T07:21:57.062Z,100870.78
2023-06-22T07:27:00.522Z,100869.31
2023-06-22T07:32:06.817Z,100866.69
2023-06-22T07:42:34.481Z,100876.97
2023-06-22T07:47:38.351Z,100877.94
2023-06-22T07:52:43.413Z,100878.06
2023-06-22T07:57:46.836Z,100888.59
2023-06-22T08:02:50.375Z,100879.19
2023-06-22T08:07:56.371Z,100883.44
2023-06-22T08:13:00.227Z,100872.66
2023-06-22T08:18:03.729Z,100883.94
2023-06-22T08:23:09.324Z,100879.13
2023-06-22T08:28:12.632Z,100882.25
2023-06-22T08:33:25.966Z,100887.97
2023-06-22T08:38:32.912Z,100895.09
2023-06-22T08:43:36.209Z,100892.72
2023-06-22T08:48:39.539Z,100898.28
2023-06-22T08:53:44.437Z,100899.59
2023-06-22T08:58:47.813Z,100896.72
2023-06-22T09:03:55.802Z,100892.38
2023-06-22T09:09:02.703Z,100891.88
2023-06-22T09:14:06.878Z,100892.50
2023-06-22T09:19:10.231Z,100891.44
2023-06-22T09:24:15.074Z,100897.03
2023-06-22T09:29:18.347Z,100895.44
2023-06-22T09:34:21.851Z,100898.91
2023-06-22T09:39:26.729Z,100895.72
2023-06-22T09:44:30.284Z,100893.13
2023-06-22T09:49:47.106Z,100885.69
2023-06-22T09:54:52.438Z,100894.94
2023-06-22T09:59:55.820Z,100890.19
2023-06-22T10:04:59.470Z,100891.69
2023-06-22T10:10:05.002Z,100882.41
2023-06-22T10:15:09.523Z,100890.50
2023-06-22T10:20:14.228Z,100883.97
2023-06-22T10:25:19.145Z,100882.75
2023-06-22T10:30:22.698Z,100885.88
2023-06-22T10:35:26.113Z,100888.47
2023-06-22T10:40:30.935Z,100891.03
2023-06-22T10:45:34.567Z,100883.22
2023-06-22T10:50:37.969Z,100890.59
2023-06-22T10:55:56.179Z,100895.84
2023-06-22T11:01:01.485Z,100888.56
2023-06-22T11:06:05.201Z,100886.84
2023-06-22T11:11:10.619Z,100895.03
2023-06-22T11:16:13.973Z,100899.75
2023-06-22T11:21:17.253Z,100901.38
2023-06-22T11:26:22.519Z,100902.50
2023-06-22T11:31:27.050Z,100901.66
2023-06-22T11:36:34.139Z,100894.38
2023-06-22T11:41:38.935Z,100905.66
2023-06-22T11:46:42.253Z,100902.47
2023-06-22T11:51:45.602Z,100897.34
2023-06-22T11:56:50.336Z,100895.06
2023-06-22T12:07:14.758Z,100900.53
2023-06-22T12:12:19.409Z,100893.13
2023-06-22T12:17:22.698Z,100888.16
2023-06-22T12:22:26.071Z,100894.63
2023-06-22T12:27:31.836Z,100887.34
2023-06-22T12:32:35.199Z,100883.78
2023-06-22T12:37:38.542Z,100883.94
2023-06-22T12:42:43.860Z,100889.69
2023-06-22T12:47:47.174Z,100875.84
2023-06-22T12:52:51.224Z,100868.66
2023-06-22T12:57:56.034Z,100878.94
2023-06-22T13:02:59.803Z,100862.75
2023-06-22T13:08:03.862Z,100875.97
2023-06-22T13:13:09.274Z,100873.59
2023-06-22T13:18:12.686Z,100869.03
2023-06-22T13:23:15.816Z,100877.50
2023-06-22T13:28:28.303Z,100876.81
2023-06-22T13:33:32.481Z,100872.31
2023-06-22T13:38:35.621Z,100867.81
2023-06-22T13:59:44.298Z,100865.56
2023-06-22T14:04:47.667Z,100872.16
2023-06-22T14:09:51.075Z,100867.25
2023-06-22T14:14:55.684Z,100871.34
2023-06-22T14:19:58.872Z,100853.34
2023-06-22T14:25:02.595Z,100861.50
2023-06-22T14:30:09.985Z,100852.66
2023-06-22T14:35:14.028Z,100845.06
2023-06-22T14:40:17.522Z,100838.78
2023-06-22T14:45:22.505Z,100845.38
2023-06-22T14:50:25.949Z,100836.56
2023-06-22T14:55:29.259Z,100837.19
2023-06-22T15:00:33.958Z,100838.75
2023-06-22T15:05:38.065Z,100832.50
2023-06-22T15:10:41.487Z,100838.28
2023-06-22T15:15:46.395Z,100836.94
2023-06-22T15:20:49.732Z,100842.16
2023-06-22T15:25:53.336Z,100845.91
2023-06-22T15:30:58.094Z,100832.13
2023-06-22T15:36:05.521Z,100834.69
2023-06-22T15:41:09.202Z,100841.16
2023-06-22T15:46:13.634Z,100845.19
2023-06-22T15:51:17.099Z,100844.53
2023-06-22T15:56:21.916Z,100845.03
2023-06-22T16:01:26.801Z,100846.06
2023-06-22T16:06:30.270Z,100838.41
2023-06-22T16:11:33.282Z,100844.88
2023-06-22T16:16:37.987Z,100838.81
2023-06-22T16:27:02.437Z,100843.88
2023-06-22T16:32:08.446Z,100840.47
2023-06-22T16:37:11.741Z,100848.25
2023-06-22T16:42:14.946Z,100854.34
2023-06-22T16:47:19.592Z,100858.00
2023-06-22T16:52:22.785Z,100855.22
2023-06-22T16:57:27.269Z,100857.97
2023-06-22T17:02:35.938Z,100861.97
2023-06-22T17:07:43.762Z,100858.91
2023-06-22T17:12:48.830Z,100865.84
2023-06-22T17:17:56.219Z,100858.88
2023-06-22T17:22:59.511Z,100872.81
2023-06-22T17:28:03.318Z,100876.72
2023-06-22T17:33:11.277Z,100871.38
2023-06-22T17:38:22.986Z,100883.97
2023-06-22T17:43:26.201Z,100892.22
2023-06-22T17:48:33.503Z,100888.22
2023-06-22T17:53:36.686Z,100898.75
2023-06-22T17:58:39.899Z,100905.44
2023-06-22T18:03:46.819Z,100913.59
2023-06-22T18:08:52.448Z,100925.06
2023-06-22T18:13:56.757Z,100919.19
2023-06-22T18:19:02.541Z,100914.81
2023-06-22T18:24:07.665Z,100937.44
2023-06-22T18:29:11.966Z,100937.28
2023-06-22T18:34:16.787Z,100935.47
2023-06-22T18:39:21.847Z,100936.38
2023-06-22T18:44:27.974Z,100933.84
2023-06-22T18:49:35.540Z,100941.25
2023-06-22T18:54:41.630Z,100938.97
2023-06-22T18:59:54.391Z,100947.06
2023-06-22T19:05:08.595Z,100940.84
2023-06-22T19:10:24.975Z,100946.09
2023-06-22T19:15:34.548Z,100948.66
2023-06-22T19:20:41.176Z,100953.34
2023-06-22T19:25:47.955Z,100957.19
2023-06-22T19:30:52.596Z,100951.94
2023-06-22T19:35:58.525Z,100956.19
2023-06-22T19:41:03.006Z,100961.56
2023-06-22T19:46:06.256Z,100971.63
2023-06-22T19:51:10.878Z,100962.38
2023-06-22T20:01:42.645Z,100963.44
2023-06-22T20:07:05.622Z,100969.34
2023-06-22T20:12:11.460Z,100970.03
2023-06-22T20:17:17.368Z,100978.31
2023-06-22T20:22:22.039Z,100979.53
2023-06-22T20:27:27.939Z,100982.53
2023-06-22T20:32:33.919Z,100998.28
2023-06-22T20:37:38.584Z,100997.78
2023-06-22T20:42:42.173Z,101006.22
2023-06-22T20:47:46.660Z,101009.72
2023-06-22T20:52:52.798Z,101010.13
2023-06-22T20:57:57.235Z,101020.78
2023-06-22T21:03:00.852Z,101020.22
2023-06-22T21:08:05.982Z,101025.47
2023-06-22T21:13:10.387Z,101023.69
2023-06-22T21:18:13.623Z,101032.84
2023-06-22T21:23:18.244Z,101039.59
2023-06-22T21:28:21.492Z,101035.56
2023-06-22T21:33:25.212Z,101042.50
2023-06-22T21:38:29.822Z,101040.06
2023-06-22T21:43:33.715Z,101036.44
2023-06-22T21:48:36.948Z,101041.66
2023-06-22T21:53:41.622Z,101053.47
2023-06-22T21:58:44.909Z,101043.00
2023-06-22T22:03:48.187Z,101042.63
2023-06-22T22:08:53.130Z,101036.41
2023-06-22T22:13:56.360Z,101038.97
2023-06-22T22:18:59.611Z,101036.13
2023-06-22T22:24:04.299Z,101033.66
2023-06-22T22:29:07.629Z,101037.81
2023-06-22T22:34:11.354Z,101038.69
2023-06-22T22:39:30.903Z,101043.63
2023-06-22T22:44:34.227Z,101045.09
2023-06-22T22:49:37.399Z,101049.31
2023-06-22T22:54:44.228Z,101054.28
2023-06-22T22:59:47.551Z,101058.03
2023-06-22T23:04:57.032Z,101044.75
2023-06-22T23:10:01.724Z,101041.06
2023-06-22T23:15:05.767Z,101043.75
2023-06-22T23:20:11.090Z,101041.53
2023-06-22T23:25:15.778Z,101042.94
2023-06-22T23:30:19.125Z,101051.22
2023-06-22T23:35:22.348Z,101048.19
2023-06-22T23:40:26.939Z,101044.47
2023-06-22T23:45:30.444Z,101044.59
2023-06-22T23:50:33.863Z,101052.13
2023-06-22T23:55:38.872Z,101046.66
